Time;durP1;ratioP1;P1;durP2;ratioP2;P2;SDS_P1;SDS_P2;PMS_P1;PMS_P2;Temp;Humidity;BMP_temperature;BMP_pressure;BME280_temperature;BME280_humidity;BME280_pressure;Samples;Min_cycle;Max_cycle;Signal;HPM_P1;HPM_P2
2021/09/08 00:00:11;;;;;;;1009.50;908.08;;;;;;;;;;4998010;28;20074;-72
2021/09/08 00:02:37;;;;;;;1006.72;905.33;;;;;;;;;;5008810;28;20579;-73
2021/09/08 00:05:03;;;;;;;998.05;897.17;;;;;;;;;;5009646;28;20029;-73
2021/09/08 00:07:29;;;;;;;1002.10;900.85;;;;;;;;;;5005342;28;20465;-73
2021/09/08 00:09:55;;;;;;;1000.20;899.22;;;;;;;;;;5005527;28;20157;-73
2021/09/08 00:12:21;;;;;;;992.70;891.97;;;;;;;;;;5010785;28;20109;-73
2021/09/08 00:14:47;;;;;;;1000.67;899.22;;;;;;;;;;5009432;28;20030;-73
2021/09/08 00:17:13;;;;;;;989.67;888.88;;;;;;;;;;5006030;28;20381;-73
2021/09/08 00:19:39;;;;;;;991.60;890.67;;;;;;;;;;5023336;28;20469;-74
2021/09/08 00:22:05;;;;;;;988.58;887.78;;;;;;;;;;5008893;28;20040;-73
2021/09/08 00:24:31;;;;;;;978.58;878.28;;;;;;;;;;5022799;28;20430;-73
2021/09/08 00:26:57;;;;;;;980.00;879.60;;;;;;;;;;5024595;28;20311;-73
2021/09/08 00:29:23;;;;;;;982.42;881.85;;;;;;;;;;5024663;28;20029;-72
2021/09/08 00:31:49;;;;;;;987.72;887.00;;;;;;;;;;5001721;28;20017;-73
2021/09/08 00:34:15;;;;;;;980.50;880.10;;;;;;;;;;5026596;28;20422;-73
2021/09/08 00:36:41;;;;;;;979.20;878.65;;;;;;;;;;5003235;28;20068;-73
2021/09/08 00:39:07;;;;;;;982.63;881.95;;;;;;;;;;5027002;28;20033;-73
2021/09/08 00:41:33;;;;;;;976.13;875.85;;;;;;;;;;5023377;28;20028;-73
2021/09/08 00:44:12;;;;;;;974.30;874.05;;;;;;;;;;5027892;28;20049;-72
2021/09/08 00:46:42;;;;;;;969.22;869.13;;;;;;;;;;5027361;28;20036;-72
2021/09/08 00:49:08;;;;;;;976.28;875.97;;;;;;;;;;5009783;28;20032;-73
2021/09/08 00:51:35;;;;;;;968.22;868.33;;;;;;;;;;5006258;28;20424;-72
2021/09/08 00:54:01;;;;;;;972.00;871.65;;;;;;;;;;5005849;28;20025;-73
2021/09/08 00:56:28;;;;;;;971.67;871.72;;;;;;;;;;5024755;28;20025;-72
2021/09/08 00:58:55;;;;;;;974.20;873.95;;;;;;;;;;5021411;28;20021;-72
2021/09/08 01:01:20;;;;;;;977.35;876.97;;;;;;;;;;5008797;28;20131;-73
2021/09/08 01:03:47;;;;;;;971.42;871.42;;;;;;;;;;5009542;28;20124;-73
2021/09/08 01:06:13;;;;;;;973.75;873.53;;;;;;;;;;5008707;28;20436;-72
2021/09/08 01:08:39;;;;;;;965.47;865.67;;;;;;;;;;5026885;28;20041;-73
2021/09/08 01:11:06;;;;;;;971.67;871.67;;;;;;;;;;5025776;28;20440;-72
2021/09/08 01:13:32;;;;;;;982.42;882.03;;;;;;;;;;5006166;28;20022;-73
2021/09/08 01:16:01;;;;;;;981.00;880.63;;;;;;;;;;5002305;28;20099;-73
2021/09/08 01:18:27;;;;;;;980.88;880.38;;;;;;;;;;5003324;28;20065;-73
2021/09/08 01:20:53;;;;;;;983.55;883.25;;;;;;;;;;5023822;28;20057;-73
2021/09/08 01:23:19;;;;;;;982.17;882.08;;;;;;;;;;5020205;28;20540;-73
2021/09/08 01:25:45;;;;;;;983.97;883.58;;;;;;;;;;5002064;28;20511;-72
2021/09/08 01:28:11;;;;;;;1001.42;899.95;;;;;;;;;;5023137;28;20343;-73
2021/09/08 01:30:41;;;;;;;991.60;891.00;;;;;;;;;;5009070;28;20389;-72
2021/09/08 01:33:10;;;;;;;982.42;882.13;;;;;;;;;;5021137;28;20032;-73
2021/09/08 01:35:36;;;;;;;986.00;885.50;;;;;;;;;;5008157;28;20021;-72
2021/09/08 01:38:02;;;;;;;978.80;878.53;;;;;;;;;;5007952;28;20030;-72
2021/09/08 01:40:28;;;;;;;987.55;887.00;;;;;;;;;;5026618;28;20033;-71
2021/09/08 01:42:54;;;;;;;988.13;887.53;;;;;;;;;;5026345;28;20091;-72
2021/09/08 01:45:20;;;;;;;985.45;885.13;;;;;;;;;;4999181;28;20033;-73
2021/09/08 01:47:46;;;;;;;977.25;877.20;;;;;;;;;;5004714;28;20208;-72
2021/09/08 01:50:12;;;;;;;984.30;883.80;;;;;;;;;;5005733;28;20029;-73
2021/09/08 01:52:39;;;;;;;971.28;871.40;;;;;;;;;;5025527;28;20346;-73
2021/09/08 01:55:06;;;;;;;976.70;876.53;;;;;;;;;;5008815;28;20489;-72
2021/09/08 01:57:32;;;;;;;984.00;883.70;;;;;;;;;;5025075;28;20071;-71
2021/09/08 01:59:58;;;;;;;977.53;877.42;;;;;;;;;;5006634;28;20393;-72
2021/09/08 02:02:24;;;;;;;983.70;883.10;;;;;;;;;;5007222;28;20025;-72
2021/09/08 02:04:50;;;;;;;995.30;894.30;;;;;;;;;;5000266;28;20068;-72
2021/09/08 02:07:16;;;;;;;984.60;884.28;;;;;;;;;;5002549;28;20124;-72
2021/09/08 02:09:42;;;;;;;990.88;890.30;;;;;;;;;;5008454;28;20041;-72
2021/09/08 02:12:08;;;;;;;986.60;885.97;;;;;;;;;;5003652;28;20018;-72
2021/09/08 02:14:34;;;;;;;987.13;886.58;;;;;;;;;;5023167;28;20017;-73
2021/09/08 02:17:00;;;;;;;989.45;888.47;;;;;;;;;;5007558;28;20041;-74
2021/09/08 02:19:26;;;;;;;986.22;885.53;;;;;;;;;;5008172;28;20030;-72
2021/09/08 02:21:52;;;;;;;990.58;889.60;;;;;;;;;;5011621;28;20044;-75
2021/09/08 02:24:18;;;;;;;988.97;888.13;;;;;;;;;;5005278;28;20029;-74
2021/09/08 02:26:44;;;;;;;994.85;893.55;;;;;;;;;;5008642;28;20026;-75
2021/09/08 02:29:10;;;;;;;989.65;888.80;;;;;;;;;;5004713;28;20033;-74
2021/09/08 02:31:36;;;;;;;991.00;890.10;;;;;;;;;;5010759;28;20034;-74
2021/09/08 02:34:02;;;;;;;987.22;886.47;;;;;;;;;;5011568;28;20090;-74
2021/09/08 02:36:28;;;;;;;994.55;893.50;;;;;;;;;;5012400;28;20029;-73
2021/09/08 02:38:54;;;;;;;990.92;890.05;;;;;;;;;;5029253;28;20028;-74
2021/09/08 02:41:22;;;;;;;994.50;893.20;;;;;;;;;;5022856;28;20053;-74
2021/09/08 02:43:48;;;;;;;992.60;891.60;;;;;;;;;;5024693;28;20050;-72
2021/09/08 02:46:14;;;;;;;987.97;887.10;;;;;;;;;;5029655;28;20033;-74
2021/09/08 02:48:40;;;;;;;980.75;880.05;;;;;;;;;;5011452;28;20091;-74
2021/09/08 02:51:06;;;;;;;987.13;886.20;;;;;;;;;;5020876;28;20131;-74
2021/09/08 02:53:33;;;;;;;994.50;893.45;;;;;;;;;;5010815;28;20036;-71
2021/09/08 02:55:59;;;;;;;977.22;877.17;;;;;;;;;;5011456;28;20079;-70
2021/09/08 02:58:25;;;;;;;978.10;877.83;;;;;;;;;;5006045;28;20053;-71
2021/09/08 03:00:51;;;;;;;983.00;882.15;;;;;;;;;;5011967;28;20135;-74
2021/09/08 03:03:18;;;;;;;983.55;882.90;;;;;;;;;;5000139;28;20034;-73
2021/09/08 03:05:44;;;;;;;983.20;882.70;;;;;;;;;;5028883;28;20112;-74
2021/09/08 03:08:10;;;;;;;983.05;882.60;;;;;;;;;;5006369;28;20191;-74
2021/09/08 03:10:36;;;;;;;985.05;884.00;;;;;;;;;;5021275;28;20526;-73
2021/09/08 03:13:02;;;;;;;979.78;879.40;;;;;;;;;;5026695;28;20032;-72
2021/09/08 03:15:29;;;;;;;980.60;880.22;;;;;;;;;;5010552;28;20062;-73
2021/09/08 03:17:55;;;;;;;974.20;873.90;;;;;;;;;;5009624;28;20029;-73
2021/09/08 03:20:21;;;;;;;972.63;872.25;;;;;;;;;;5028041;28;20370;-72
2021/09/08 03:22:47;;;;;;;976.03;875.83;;;;;;;;;;5008302;28;20401;-72
2021/09/08 03:25:13;;;;;;;973.65;873.40;;;;;;;;;;5027715;28;20040;-73
2021/09/08 03:27:40;;;;;;;974.13;874.03;;;;;;;;;;5010904;28;20026;-72
2021/09/08 03:30:06;;;;;;;979.15;878.45;;;;;;;;;;5021342;28;20029;-74
2021/09/08 03:32:32;;;;;;;987.08;886.28;;;;;;;;;;5019821;28;20030;-73
2021/09/08 03:34:58;;;;;;;977.05;876.72;;;;;;;;;;5003108;28;20091;-73
2021/09/08 03:37:24;;;;;;;978.70;878.40;;;;;;;;;;5026226;28;20029;-73
2021/09/08 03:39:52;;;;;;;980.38;879.88;;;;;;;;;;5010561;28;20236;-73
2021/09/08 03:42:18;;;;;;;974.70;874.60;;;;;;;;;;5020527;28;20077;-73
2021/09/08 03:44:44;;;;;;;977.75;877.15;;;;;;;;;;5009944;28;20040;-74
2021/09/08 03:47:10;;;;;;;978.92;878.35;;;;;;;;;;5006329;28;20109;-72
2021/09/08 03:49:36;;;;;;;980.20;879.80;;;;;;;;;;5024667;28;20402;-72
2021/09/08 03:52:02;;;;;;;973.33;873.42;;;;;;;;;;5009983;28;20034;-71
2021/09/08 03:54:29;;;;;;;974.08;873.63;;;;;;;;;;5009775;28;20032;-73
2021/09/08 03:56:54;;;;;;;971.40;871.35;;;;;;;;;;5010555;28;20432;-73
2021/09/08 03:59:22;;;;;;;970.97;870.75;;;;;;;;;;5001984;28;20057;-73
2021/09/08 04:01:48;;;;;;;969.90;869.75;;;;;;;;;;5010588;28;20049;-72
2021/09/08 04:04:15;;;;;;;971.97;871.97;;;;;;;;;;5008295;28;20048;-73
2021/09/08 04:06:41;;;;;;;972.50;872.53;;;;;;;;;;5026924;28;20034;-73
2021/09/08 04:09:06;;;;;;;970.97;870.78;;;;;;;;;;5009960;28;20041;-73
2021/09/08 04:11:32;;;;;;;969.63;869.90;;;;;;;;;;5010173;28;20049;-72
2021/09/08 04:13:58;;;;;;;972.33;872.33;;;;;;;;;;5009379;28;20018;-74
2021/09/08 04:16:24;;;;;;;974.47;874.53;;;;;;;;;;5028215;28;20025;-74
2021/09/08 04:18:50;;;;;;;973.17;873.03;;;;;;;;;;5007648;28;20029;-72
2021/09/08 04:21:17;;;;;;;972.05;871.95;;;;;;;;;;5009466;28;20265;-73
2021/09/08 04:23:43;;;;;;;971.75;871.88;;;;;;;;;;4998507;28;20052;-73
2021/09/08 04:26:10;;;;;;;968.53;868.83;;;;;;;;;;5009927;28;20116;-74
2021/09/08 04:28:36;;;;;;;969.20;869.50;;;;;;;;;;5006531;28;20021;-73
2021/09/08 04:31:02;;;;;;;974.65;874.58;;;;;;;;;;5004887;28;20500;-74
2021/09/08 04:33:28;;;;;;;979.22;878.80;;;;;;;;;;5027388;28;20083;-74
2021/09/08 04:35:56;;;;;;;977.85;877.80;;;;;;;;;;5006456;28;20251;-73
2021/09/08 04:38:23;;;;;;;976.10;875.70;;;;;;;;;;5010256;28;20032;-73
2021/09/08 04:40:49;;;;;;;976.95;876.78;;;;;;;;;;5006741;28;20207;-74
2021/09/08 04:43:15;;;;;;;970.25;870.40;;;;;;;;;;5026796;28;20057;-74
2021/09/08 04:45:41;;;;;;;978.13;877.92;;;;;;;;;;5008788;28;20097;-74
2021/09/08 04:48:07;;;;;;;977.72;877.38;;;;;;;;;;5018897;28;20112;-74
2021/09/08 04:50:33;;;;;;;972.55;872.58;;;;;;;;;;5007925;28;20036;-74
2021/09/08 04:52:59;;;;;;;976.30;875.47;;;;;;;;;;5008526;28;20029;-74
2021/09/08 04:55:25;;;;;;;970.03;870.13;;;;;;;;;;5026599;28;20032;-74
2021/09/08 04:57:51;;;;;;;967.10;867.30;;;;;;;;;;5001039;28;20036;-74
2021/09/08 05:00:17;;;;;;;970.03;870.17;;;;;;;;;;5006802;28;20034;-74
2021/09/08 05:02:43;;;;;;;964.25;864.72;;;;;;;;;;5009188;28;20030;-73
2021/09/08 05:05:09;;;;;;;966.67;866.83;;;;;;;;;;5008520;28;20095;-74
2021/09/08 05:07:35;;;;;;;963.53;864.03;;;;;;;;;;5008723;28;20651;-74
2021/09/08 05:10:01;;;;;;;971.63;871.78;;;;;;;;;;5003488;28;20120;-73
2021/09/08 05:12:27;;;;;;;969.17;869.22;;;;;;;;;;5027059;28;20029;-74
2021/09/08 05:14:53;;;;;;;975.40;875.22;;;;;;;;;;5008896;28;20457;-74
2021/09/08 05:17:19;;;;;;;967.47;867.63;;;;;;;;;;5008325;28;20108;-73
2021/09/08 05:19:45;;;;;;;961.17;861.65;;;;;;;;;;5025934;28;20061;-73
2021/09/08 05:22:11;;;;;;;968.00;868.28;;;;;;;;;;5008054;28;20036;-73
2021/09/08 05:24:37;;;;;;;968.17;868.00;;;;;;;;;;5022142;28;20038;-74
2021/09/08 05:27:03;;;;;;;969.17;869.13;;;;;;;;;;5014722;28;20106;-75
2021/09/08 05:29:29;;;;;;;962.55;863.25;;;;;;;;;;5015352;28;20070;-73
2021/09/08 05:31:55;;;;;;;968.00;868.28;;;;;;;;;;5006739;28;20025;-73
2021/09/08 05:34:21;;;;;;;974.22;874.10;;;;;;;;;;5025837;28;20497;-73
2021/09/08 05:36:47;;;;;;;966.70;867.10;;;;;;;;;;5002288;28;20504;-73
2021/09/08 05:39:13;;;;;;;963.60;864.10;;;;;;;;;;5008187;28;20026;-73
2021/09/08 05:41:39;;;;;;;971.35;871.60;;;;;;;;;;5025449;28;20523;-73
2021/09/08 05:44:05;;;;;;;960.22;860.83;;;;;;;;;;5025960;28;20536;-73
2021/09/08 05:46:32;;;;;;;961.90;862.58;;;;;;;;;;5007540;28;20033;-74
2021/09/08 05:48:57;;;;;;;966.83;867.17;;;;;;;;;;5006124;28;20037;-74
2021/09/08 05:51:23;;;;;;;962.70;863.50;;;;;;;;;;5008111;28;20465;-72
2021/09/08 05:53:49;;;;;;;963.22;863.33;;;;;;;;;;5021694;28;20048;-73
2021/09/08 05:56:15;;;;;;;960.35;860.95;;;;;;;;;;5004977;28;20014;-73
2021/09/08 05:58:41;;;;;;;967.95;868.30;;;;;;;;;;5006288;28;20025;-72
2021/09/08 06:01:07;;;;;;;964.60;865.22;;;;;;;;;;5007854;28;20176;-73
2021/09/08 06:03:33;;;;;;;975.75;875.72;;;;;;;;;;5025184;28;20017;-73
2021/09/08 06:05:59;;;;;;;973.90;874.13;;;;;;;;;;5003344;28;20028;-72
2021/09/08 06:08:25;;;;;;;978.30;878.22;;;;;;;;;;5026280;28;20108;-72
2021/09/08 06:10:51;;;;;;;972.22;872.47;;;;;;;;;;5021943;28;20026;-74
2021/09/08 06:13:17;;;;;;;979.78;879.55;;;;;;;;;;5004676;28;20084;-73
2021/09/08 06:15:43;;;;;;;990.80;890.40;;;;;;;;;;5023303;28;20036;-73
2021/09/08 06:18:09;;;;;;;982.83;882.97;;;;;;;;;;5023875;28;20477;-73
2021/09/08 06:20:35;;;;;;;987.05;886.55;;;;;;;;;;5007505;28;20117;-73
2021/09/08 06:23:01;;;;;;;985.67;885.35;;;;;;;;;;4999753;28;20025;-73
2021/09/08 06:25:28;;;;;;;988.95;888.72;;;;;;;;;;5008286;28;20128;-73
2021/09/08 06:27:54;;;;;;;993.05;892.72;;;;;;;;;;5007425;28;20334;-74
2021/09/08 06:30:20;;;;;;;994.28;893.88;;;;;;;;;;5022913;28;20678;-74
2021/09/08 06:32:46;;;;;;;998.80;898.10;;;;;;;;;;5024962;28;20033;-73
2021/09/08 06:35:12;;;;;;;1000.42;899.60;;;;;;;;;;5025910;28;20025;-74
2021/09/08 06:37:43;;;;;;;998.53;898.40;;;;;;;;;;5001935;28;20119;-73
2021/09/08 06:40:09;;;;;;;1004.95;904.35;;;;;;;;;;5021834;28;20528;-72
2021/09/08 06:42:35;;;;;;;1010.40;909.63;;;;;;;;;;4999803;28;20030;-72
2021/09/08 06:45:01;;;;;;;1014.90;914.08;;;;;;;;;;5008247;28;20029;-73
2021/09/08 06:47:27;;;;;;;1016.70;915.65;;;;;;;;;;4999820;28;20124;-74
2021/09/08 06:49:53;;;;;;;1023.92;922.65;;;;;;;;;;5025678;28;20515;-75
2021/09/08 06:52:20;;;;;;;1023.25;922.33;;;;;;;;;;5007986;28;20083;-73
2021/09/08 06:54:46;;;;;;;1033.03;931.13;;;;;;;;;;5021816;28;20390;-73
2021/09/08 06:57:16;;;;;;;1035.45;933.72;;;;;;;;;;5015202;28;20470;-73
2021/09/08 06:59:42;;;;;;;1032.03;930.42;;;;;;;;;;5005510;28;20165;-73
2021/09/08 07:02:08;;;;;;;1040.50;938.60;;;;;;;;;;5003960;28;20073;-74
2021/09/08 07:04:35;;;;;;;1042.93;940.53;;;;;;;;;;5007833;28;20030;-72
2021/09/08 07:07:01;;;;;;;1049.40;946.80;;;;;;;;;;5022594;28;20489;-73
2021/09/08 07:09:27;;;;;;;1045.75;943.60;;;;;;;;;;5011413;28;20048;-72
2021/09/08 07:11:53;;;;;;;1054.38;951.90;;;;;;;;;;5010397;28;20112;-74
2021/09/08 07:14:19;;;;;;;1054.15;951.30;;;;;;;;;;5004467;28;20397;-73
2021/09/08 07:16:45;;;;;;;1056.90;954.28;;;;;;;;;;5024319;28;20064;-74
2021/09/08 07:19:11;;;;;;;1062.55;959.42;;;;;;;;;;5030084;28;20465;-74
2021/09/08 07:21:37;;;;;;;1069.50;966.00;;;;;;;;;;5014678;28;20128;-73
2021/09/08 07:24:03;;;;;;;1083.65;979.42;;;;;;;;;;5023700;28;20113;-73
2021/09/08 07:26:35;;;;;;;1083.13;979.30;;;;;;;;;;5005264;28;20056;-73
2021/09/08 07:29:01;;;;;;;1079.95;976.35;;;;;;;;;;5028247;28;20049;-73
2021/09/08 07:31:27;;;;;;;1090.85;986.60;;;;;;;;;;5009996;28;20044;-72
2021/09/08 07:33:53;;;;;;;1104.20;997.55;;;;;;;;;;5025046;28;20076;-73
2021/09/08 07:36:19;;;;;;;1106.07;997.70;;;;;;;;;;5017464;28;20064;-73
2021/09/08 07:38:46;;;;;;;1106.15;998.38;;;;;;;;;;5004644;28;20061;-73
2021/09/08 07:41:12;;;;;;;1114.80;999.90;;;;;;;;;;5023046;28;20350;-72
2021/09/08 07:43:38;;;;;;;1109.90;999.63;;;;;;;;;;5022773;28;21055;-72
2021/09/08 07:46:04;;;;;;;1114.88;999.90;;;;;;;;;;5019166;28;20397;-74
2021/09/08 07:48:31;;;;;;;1120.00;999.90;;;;;;;;;;5020185;28;20369;-73
2021/09/08 07:50:57;;;;;;;1127.00;999.90;;;;;;;;;;5019667;28;20040;-73
2021/09/08 07:53:23;;;;;;;1127.20;999.90;;;;;;;;;;5002687;28;20430;-73
2021/09/08 07:55:49;;;;;;;1123.93;999.90;;;;;;;;;;5020633;28;20100;-72
2021/09/08 07:58:15;;;;;;;1131.53;999.90;;;;;;;;;;4999723;28;20358;-74
2021/09/08 08:00:41;;;;;;;1136.20;999.90;;;;;;;;;;5016441;28;20674;-73
2021/09/08 08:03:07;;;;;;;1141.28;999.90;;;;;;;;;;5010974;28;20039;-73
2021/09/08 08:05:33;;;;;;;1144.40;999.90;;;;;;;;;;4999388;28;20116;-72
2021/09/08 08:07:59;;;;;;;1139.45;999.90;;;;;;;;;;5017722;28;20087;-73
2021/09/08 08:10:25;;;;;;;1152.13;999.90;;;;;;;;;;5001072;28;20393;-73
2021/09/08 08:12:51;;;;;;;1147.10;999.90;;;;;;;;;;5016774;28;20026;-74
2021/09/08 08:15:17;;;;;;;1149.07;999.90;;;;;;;;;;4996996;28;20041;-73
2021/09/08 08:17:44;;;;;;;1147.80;999.90;;;;;;;;;;5016348;28;20029;-74
2021/09/08 08:20:10;;;;;;;1150.55;999.90;;;;;;;;;;5014028;28;20028;-73
2021/09/08 08:22:36;;;;;;;1158.78;999.90;;;;;;;;;;5018301;28;20414;-73
2021/09/08 08:25:03;;;;;;;1163.15;999.90;;;;;;;;;;4999842;28;20029;-73
2021/09/08 08:27:29;;;;;;;1159.60;999.90;;;;;;;;;;5016807;28;20259;-74
2021/09/08 08:29:55;;;;;;;1168.50;999.90;;;;;;;;;;4996177;28;20037;-73
2021/09/08 08:32:23;;;;;;;1177.55;999.90;;;;;;;;;;5004823;28;20028;-73
2021/09/08 08:34:49;;;;;;;1180.93;999.90;;;;;;;;;;5020150;28;20071;-73
2021/09/08 08:37:15;;;;;;;1182.88;999.90;;;;;;;;;;5003440;28;20025;-74
2021/09/08 08:39:41;;;;;;;1180.53;999.90;;;;;;;;;;5017975;28;20145;-72
2021/09/08 08:42:13;;;;;;;1183.10;999.90;;;;;;;;;;5004042;28;20018;-73
2021/09/08 08:44:39;;;;;;;1179.38;999.90;;;;;;;;;;5021072;28;20045;-73
2021/09/08 08:47:06;;;;;;;1186.20;999.90;;;;;;;;;;5004264;28;20079;-72
2021/09/08 08:49:33;;;;;;;1185.53;999.90;;;;;;;;;;4998794;28;20109;-74
2021/09/08 08:51:59;;;;;;;1201.80;999.90;;;;;;;;;;5002354;28;20029;-73
2021/09/08 08:54:25;;;;;;;1203.43;999.90;;;;;;;;;;5020772;28;20033;-73
2021/09/08 08:56:52;;;;;;;1205.50;999.90;;;;;;;;;;5017712;28;20528;-73
2021/09/08 08:59:18;;;;;;;1208.97;999.90;;;;;;;;;;5018299;28;20481;-72
2021/09/08 09:01:45;;;;;;;1207.30;999.90;;;;;;;;;;5017659;28;20056;-73
2021/09/08 09:04:13;;;;;;;1201.53;999.90;;;;;;;;;;5003322;28;20034;-73
2021/09/08 09:06:41;;;;;;;1209.05;999.90;;;;;;;;;;5021173;28;20025;-72
2021/09/08 09:09:11;;;;;;;1208.85;999.90;;;;;;;;;;5002182;28;20120;-73
2021/09/08 09:11:38;;;;;;;1206.10;999.90;;;;;;;;;;5020335;28;20040;-74
2021/09/08 09:14:05;;;;;;;1207.68;999.90;;;;;;;;;;5022617;28;20108;-75
2021/09/08 09:16:31;;;;;;;1210.07;999.90;;;;;;;;;;5002541;28;20741;-73
2021/09/08 09:18:57;;;;;;;1213.25;999.90;;;;;;;;;;5018516;28;20533;-73
2021/09/08 09:21:25;;;;;;;1212.78;999.90;;;;;;;;;;5001851;28;20033;-74
2021/09/08 09:23:52;;;;;;;1208.63;999.90;;;;;;;;;;5020849;28;20033;-72
2021/09/08 09:26:22;;;;;;;1213.05;999.90;;;;;;;;;;5017231;28;20029;-72
2021/09/08 09:28:49;;;;;;;1215.50;999.90;;;;;;;;;;5018619;28;20048;-73
2021/09/08 09:31:15;;;;;;;1211.85;999.90;;;;;;;;;;5002017;28;20029;-74
2021/09/08 09:33:45;;;;;;;1209.07;999.90;;;;;;;;;;5001035;28;20084;-73
2021/09/08 09:36:10;;;;;;;;;;;;;;;;;;5018696;28;20041;-74
2021/09/08 09:38:37;;;;;;;1212.00;999.90;;;;;;;;;;5015168;28;19920;-73
2021/09/08 09:41:03;;;;;;;1212.55;999.90;;;;;;;;;;5000055;28;20397;-72
2021/09/08 09:43:30;;;;;;;1216.25;999.90;;;;;;;;;;4997592;28;20120;-73
2021/09/08 09:45:56;;;;;;;1224.70;999.90;;;;;;;;;;4997696;28;20034;-74
2021/09/08 09:48:22;;;;;;;1230.22;999.90;;;;;;;;;;4998305;28;20029;-73
2021/09/08 09:50:49;;;;;;;1228.25;999.90;;;;;;;;;;4998989;28;20057;-75
2021/09/08 09:53:18;;;;;;;1243.30;999.90;;;;;;;;;;4999953;28;20033;-75
2021/09/08 09:55:45;;;;;;;1255.22;999.90;;;;;;;;;;5017793;28;20033;-74
2021/09/08 09:58:11;;;;;;;1266.22;999.90;;;;;;;;;;5017598;28;20030;-73
2021/09/08 10:00:37;;;;;;;1279.25;999.90;;;;;;;;;;4997741;28;20133;-74
2021/09/08 10:03:03;;;;;;;1274.88;999.90;;;;;;;;;;4995222;28;20124;-72
2021/09/08 10:05:29;;;;;;;1290.40;999.90;;;;;;;;;;4998692;28;20141;-74
2021/09/08 10:07:55;;;;;;;1290.78;999.90;;;;;;;;;;5005898;28;20120;-74
2021/09/08 10:10:25;;;;;;;1287.70;999.90;;;;;;;;;;5015297;28;20029;-74
2021/09/08 10:13:01;;;;;;;1286.78;999.90;;;;;;;;;;5016561;28;20104;-70
2021/09/08 10:15:28;;;;;;;1300.25;999.90;;;;;;;;;;4996379;28;20029;-71
2021/09/08 10:18:04;;;;;;;1296.68;999.90;;;;;;;;;;5015791;28;20075;-74
2021/09/08 10:20:30;;;;;;;1304.93;999.90;;;;;;;;;;5015573;28;20033;-74
2021/09/08 10:23:06;;;;;;;1298.88;999.90;;;;;;;;;;5016571;28;20254;-74
2021/09/08 10:25:32;;;;;;;1298.85;999.90;;;;;;;;;;5017023;28;20071;-74
2021/09/08 10:27:58;;;;;;;1306.70;999.90;;;;;;;;;;4997733;28;20037;-73
2021/09/08 10:30:26;;;;;;;1308.70;999.90;;;;;;;;;;5011619;28;20041;-75
2021/09/08 10:32:55;;;;;;;1303.72;999.90;;;;;;;;;;4998691;28;20502;-73
2021/09/08 10:35:22;;;;;;;1292.70;999.90;;;;;;;;;;4998042;28;20032;-75
2021/09/08 10:37:50;;;;;;;1284.43;999.90;;;;;;;;;;4998455;28;20116;-72
2021/09/08 10:40:17;;;;;;;1280.00;999.90;;;;;;;;;;5014398;28;20030;-73
2021/09/08 10:42:57;;;;;;;1271.68;999.90;;;;;;;;;;5001002;28;20073;-74
2021/09/08 10:45:27;;;;;;;1273.53;999.90;;;;;;;;;;5001871;28;20433;-74
2021/09/08 10:47:55;;;;;;;1264.03;999.90;;;;;;;;;;5006462;28;20025;-75
2021/09/08 10:50:36;;;;;;;1271.50;999.90;;;;;;;;;;5017410;28;20162;-74
2021/09/08 10:53:22;;;;;;;1270.30;999.90;;;;;;;;;;5006996;28;20028;-73
2021/09/08 10:55:50;;;;;;;1275.82;999.90;;;;;;;;;;5003476;28;20013;-73
2021/09/08 10:58:16;;;;;;;1287.32;999.90;;;;;;;;;;5017366;28;20026;-74
2021/09/08 11:00:45;;;;;;;1303.95;999.90;;;;;;;;;;5004831;28;20112;-73
2021/09/08 11:03:17;;;;;;;1291.45;999.90;;;;;;;;;;5003698;28;20030;-74
2021/09/08 11:06:01;;;;;;;1294.25;999.90;;;;;;;;;;5020579;28;20145;-75
2021/09/08 11:08:32;;;;;;;1296.07;999.90;;;;;;;;;;5007126;28;20389;-74
2021/09/08 11:11:17;;;;;;;1286.63;999.90;;;;;;;;;;5005587;28;20358;-73
2021/09/08 11:13:44;;;;;;;1280.40;999.90;;;;;;;;;;5023786;28;20024;-75
2021/09/08 11:16:30;;;;;;;1291.22;999.90;;;;;;;;;;5019409;28;20048;-74
2021/09/08 11:18:57;;;;;;;1288.97;999.90;;;;;;;;;;5005036;28;20014;-73
2021/09/08 11:21:26;;;;;;;1287.75;999.90;;;;;;;;;;5004819;28;20062;-73
2021/09/08 11:24:03;;;;;;;1289.30;999.90;;;;;;;;;;5021605;28;20357;-74
2021/09/08 11:26:31;;;;;;;1295.63;999.90;;;;;;;;;;5023570;28;20477;-75
2021/09/08 11:29:01;;;;;;;1287.93;999.90;;;;;;;;;;5020399;28;20025;-73
2021/09/08 11:31:39;;;;;;;1289.75;999.90;;;;;;;;;;5003459;28;20092;-74
2021/09/08 11:34:16;;;;;;;1277.72;999.90;;;;;;;;;;5005762;28;20064;-73
2021/09/08 11:36:42;;;;;;;1279.63;999.90;;;;;;;;;;5004069;28;20540;-72
2021/09/08 11:39:13;;;;;;;1273.70;999.90;;;;;;;;;;5021149;28;20037;-73
2021/09/08 11:41:51;;;;;;;1284.93;999.90;;;;;;;;;;5007178;28;20053;-73
2021/09/08 11:44:17;;;;;;;1294.93;999.90;;;;;;;;;;5026433;28;20742;-73
2021/09/08 11:46:43;;;;;;;1302.82;999.90;;;;;;;;;;5004595;28;20062;-73
2021/09/08 11:49:11;;;;;;;1334.35;999.90;;;;;;;;;;5002635;28;20021;-74
2021/09/08 11:51:38;;;;;;;1359.22;999.90;;;;;;;;;;5005829;28;20087;-72
2021/09/08 11:54:07;;;;;;;1382.95;999.90;;;;;;;;;;5018361;28;20025;-73
2021/09/08 11:56:33;;;;;;;1392.30;999.90;;;;;;;;;;5021160;28;20029;-73
2021/09/08 11:59:04;;;;;;;1408.10;999.90;;;;;;;;;;5003756;28;20018;-74
2021/09/08 12:01:38;;;;;;;1428.53;999.90;;;;;;;;;;5022326;28;20026;-74
2021/09/08 12:04:04;;;;;;;1431.45;999.90;;;;;;;;;;5017472;28;20026;-71
2021/09/08 12:06:31;;;;;;;1446.60;999.90;;;;;;;;;;5002957;28;20030;-72
2021/09/08 12:09:03;;;;;;;1457.85;999.90;;;;;;;;;;5001473;28;20132;-72
2021/09/08 12:11:46;;;;;;;1461.65;999.90;;;;;;;;;;5005248;28;20044;-74
2021/09/08 12:14:22;;;;;;;1469.35;999.90;;;;;;;;;;5003188;28;20018;-73
2021/09/08 12:16:50;;;;;;;1479.93;999.90;;;;;;;;;;5021941;28;20044;-73
2021/09/08 12:19:19;;;;;;;1488.00;999.90;;;;;;;;;;5001590;28;20033;-74
2021/09/08 12:21:45;;;;;;;1493.38;999.90;;;;;;;;;;5025968;28;20461;-74
2021/09/08 12:24:23;;;;;;;1488.82;999.90;;;;;;;;;;5005065;28;20021;-74
2021/09/08 12:26:49;;;;;;;1494.05;999.90;;;;;;;;;;5020837;28;20037;-73
2021/09/08 12:29:15;;;;;;;1482.43;999.90;;;;;;;;;;5005449;28;20072;-73
2021/09/08 12:31:53;;;;;;;1480.72;999.90;;;;;;;;;;5021442;28;20543;-73
2021/09/08 12:34:19;;;;;;;1465.25;999.90;;;;;;;;;;5002576;28;20052;-73
2021/09/08 12:36:46;;;;;;;1454.22;999.90;;;;;;;;;;5005739;28;20190;-73
2021/09/08 12:39:14;;;;;;;1438.13;999.90;;;;;;;;;;5022479;28;20026;-74
2021/09/08 12:42:01;;;;;;;1424.57;999.90;;;;;;;;;;5003125;28;20131;-73
2021/09/08 12:44:32;;;;;;;1417.25;999.90;;;;;;;;;;5019796;28;20050;-73
2021/09/08 12:47:17;;;;;;;1404.28;999.90;;;;;;;;;;5016957;28;20029;-73
2021/09/08 12:49:44;;;;;;;1393.60;999.90;;;;;;;;;;5024984;28;20385;-73
2021/09/08 12:52:13;;;;;;;1385.30;999.90;;;;;;;;;;5000367;28;20033;-74
2021/09/08 12:54:40;;;;;;;1377.97;999.90;;;;;;;;;;4999954;28;20033;-73
2021/09/08 12:57:06;;;;;;;1380.47;999.90;;;;;;;;;;5001502;28;20691;-73
2021/09/08 12:59:34;;;;;;;1378.35;999.90;;;;;;;;;;4998971;28;20635;-73
2021/09/08 13:02:00;;;;;;;1377.35;999.90;;;;;;;;;;5000860;28;20076;-73
2021/09/08 13:04:26;;;;;;;1369.80;999.90;;;;;;;;;;5019389;28;20065;-74
2021/09/08 13:06:53;;;;;;;1370.53;999.90;;;;;;;;;;5003723;28;20025;-73
2021/09/08 13:09:19;;;;;;;1369.55;999.90;;;;;;;;;;5003652;28;20026;-74
2021/09/08 13:11:45;;;;;;;1360.75;999.90;;;;;;;;;;5022271;28;20065;-72
2021/09/08 13:14:12;;;;;;;1364.72;999.90;;;;;;;;;;5018242;28;20056;-73
2021/09/08 13:16:38;;;;;;;1369.07;999.90;;;;;;;;;;5019646;28;20030;-72
2021/09/08 13:19:04;;;;;;;1366.72;999.90;;;;;;;;;;5002007;28;20025;-73
2021/09/08 13:21:32;;;;;;;1367.43;999.90;;;;;;;;;;5003251;28;20037;-74
2021/09/08 13:23:58;;;;;;;1351.82;999.90;;;;;;;;;;5020188;28;20032;-74
2021/09/08 13:26:24;;;;;;;1363.50;999.90;;;;;;;;;;5003203;28;20029;-74
2021/09/08 13:28:50;;;;;;;1352.10;999.90;;;;;;;;;;5019319;28;20591;-73
2021/09/08 13:31:18;;;;;;;1356.05;999.90;;;;;;;;;;5002373;28;20146;-72
2021/09/08 13:33:45;;;;;;;1353.88;999.90;;;;;;;;;;5001699;28;20049;-72
2021/09/08 13:36:11;;;;;;;1349.53;999.90;;;;;;;;;;5000516;28;20049;-72
2021/09/08 13:38:38;;;;;;;1338.70;999.90;;;;;;;;;;5001195;28;20052;-74
2021/09/08 13:41:07;;;;;;;1349.53;999.90;;;;;;;;;;5005182;28;20029;-73
2021/09/08 13:43:33;;;;;;;1341.05;999.90;;;;;;;;;;5017710;28;20045;-73
2021/09/08 13:46:00;;;;;;;1342.97;999.90;;;;;;;;;;5018924;28;20017;-73